Time;durP1;ratioP1;P1;durP2;ratioP2;P2;SDS_P1;SDS_P2;PMS_P1;PMS_P2;Temp;Humidity;BMP_temperature;BMP_pressure;BME280_temperature;BME280_humidity;BME280_pressure;Samples;Min_cycle;Max_cycle;Signal;HPM_P1;HPM_P2
2021/01/13 02:54:45;;;;;;;;;;;;;;;;;;;;;
2021/01/13 02:58:20;;;;;;;;;;;;;;;8.57;52.94;99616.84;4507257;31;20115;-80
2021/01/13 03:08:58;;;;;;;;;;;;;;;8.52;53.02;99622.28;4589334;31;19938;-80
2021/01/13 03:23:54;;;;;;;;;;;;;;;8.47;53.40;99624.25;4610774;31;19944;-80
2021/01/13 05:17:03;;;;;;;;;;;;;;;;;;;;;
2021/01/13 06:10:42;;;;;;;;;;;;;;;8.52;52.68;99595.91;4714788;30;19937;-85
2021/01/13 06:13:19;;;;;;;;;;;;;;;8.52;52.55;99600.34;4773447;30;19981;-81
2021/01/13 06:15:47;;;;;;;;;;;;;;;8.45;52.58;99587.38;4773676;30;21365;-81
2021/01/13 06:18:15;;;;;;;;;;;;;;;8.44;52.96;99597.94;4787288;29;19950;-83
2021/01/13 06:20:42;;;;;;;;;;;;;;;8.45;52.95;99595.28;4777608;30;19934;-80
2021/01/13 06:23:12;;;;;;;;;;;;;;;8.44;52.72;99590.03;4788440;29;19933;-83
2021/01/13 06:25:40;;;;;;;;;;;;;;;8.44;53.01;99590.94;4774906;30;19934;-82
2021/01/13 06:28:22;;;;;;;;;;;;;;;8.45;52.27;99584.75;4770025;30;19937;-81
2021/01/13 06:31:00;;;;;;;;;;;;;;;8.46;52.53;99589.09;4771467;30;20145;-81
2021/01/13 06:33:33;;;;;;;;;;;;;;;8.53;52.51;99594.16;4762629;30;19938;-83
2021/01/13 06:36:08;;;;;;;;;;;;;;;8.54;52.59;99595.88;4786115;30;20402;-81
2021/01/13 06:38:41;;;;;;;;;;;;;;;8.54;52.77;99588.81;4769984;30;19964;-82
2021/01/13 06:41:08;;;;;;;;;;;;;;;8.59;52.15;99580.75;4794610;30;19930;-81
2021/01/13 06:43:35;;;;;;;;;;;;;;;8.59;52.60;99573.69;4789144;29;20466;-82
2021/01/13 06:46:17;;;;;;;;;;;;;;;8.67;52.68;99577.81;4792835;29;19929;-82
2021/01/13 06:48:44;;;;;;;;;;;;;;;8.71;52.54;99575.00;4791558;30;19933;-83
2021/01/13 06:51:15;;;;;;;;;;;;;;;8.74;52.59;99582.78;4788409;29;19936;-82
2021/01/13 06:53:44;;;;;;;;;;;;;;;8.74;51.97;99579.31;4774167;30;19930;-82
2021/01/13 06:56:12;;;;;;;;;;;;;;;8.77;52.03;99584.44;4792298;30;20311;-82
2021/01/13 06:58:39;;;;;;;;;;;;;;;8.75;52.42;99575.75;4796503;30;20006;-82
2021/01/13 07:01:07;;;;;;;;;;;;;;;8.77;52.12;99579.16;4795987;30;19959;-82
2021/01/13 07:03:34;;;;;;;;;;;;;;;8.76;52.73;99573.06;4784740;29;19940;-82
2021/01/13 07:06:02;;;;;;;;;;;;;;;8.77;52.64;99573.91;4789371;30;19933;-81
2021/01/13 07:08:29;;;;;;;;;;;;;;;8.78;52.62;99573.84;4795370;29;19960;-81
2021/01/13 07:11:04;;;;;;;;;;;;;;;8.78;52.28;99570.34;4779455;30;20413;-82
2021/01/13 07:13:32;;;;;;;;;;;;;;;8.78;52.63;99571.19;4778426;30;19968;-81
2021/01/13 07:16:00;;;;;;;;;;;;;;;8.77;52.81;99568.63;4795674;29;19941;-82
2021/01/13 07:18:28;;;;;;;;;;;;;;;8.78;52.23;99562.44;4788564;30;20318;-82
2021/01/13 07:20:55;;;;;;;;;;;;;;;8.75;53.04;99567.84;4790316;29;19933;-82
2021/01/13 07:23:22;;;;;;;;;;;;;;;8.76;52.47;99561.63;4777236;30;19933;-81
2021/01/13 07:25:52;;;;;;;;;;;;;;;8.74;52.71;99566.13;4783105;30;19929;-82
2021/01/13 07:28:34;;;;;;;;;;;;;;;8.77;52.38;99563.34;4783250;30;19936;-82
2021/01/13 07:31:03;;;;;;;;;;;;;;;8.77;52.85;99564.22;4791299;29;19964;-81
2021/01/13 07:33:33;;;;;;;;;;;;;;;8.77;52.52;99560.72;4791058;30;20138;-81
2021/01/13 07:36:01;;;;;;;;;;;;;;;8.73;52.56;99561.75;4795442;30;20006;-82
2021/01/13 07:38:29;;;;;;;;;;;;;;;8.74;52.94;99563.47;4798488;30;19934;-82
2021/01/13 07:40:59;;;;;;;;;;;;;;;8.72;53.13;99565.31;4797611;29;20382;-82
2021/01/13 07:43:49;;;;;;;;;;;;;;;8.73;52.59;99560.00;4781512;30;19976;-81
2021/01/13 07:46:25;;;;;;;;;;;;;;;8.72;52.42;99560.91;4776228;30;19993;-81
2021/01/13 07:49:07;;;;;;;;;;;;;;;8.70;53.23;99561.88;4793033;29;19933;-81
2021/01/13 07:51:45;;;;;;;;;;;;;;;8.71;52.89;99560.97;4779759;30;19933;-81
2021/01/13 07:54:18;;;;;;;;;;;;;;;8.68;53.35;99558.44;4794940;30;20320;-80
2021/01/13 07:56:50;;;;;;;;;;;;;;;8.69;53.02;99557.53;4795423;30;19951;-81
2021/01/13 07:59:31;;;;;;;;;;;;;;;8.64;52.86;99561.19;4779228;30;19960;-81
2021/01/13 08:02:22;;;;;;;;;;;;;;;8.62;53.02;99562.19;4776329;30;19933;-80
2021/01/13 08:05:07;;;;;;;;;;;;;;;8.71;52.60;99558.34;4792130;30;19960;-82
2021/01/13 08:07:39;;;;;;;;;;;;;;;8.95;50.89;99549.44;4798238;29;19933;-81
2021/01/13 08:10:17;;;;;;;;;;;;;;;9.05;49.25;99552.59;4781852;30;19961;-82
2021/01/13 08:13:05;;;;;;;;;;;;;;;9.14;48.00;99546.09;4797470;30;19941;-82
2021/01/13 08:15:50;;;;;;;;;;;;;;;9.17;47.38;99542.47;4790169;30;19933;-82
2021/01/13 08:18:47;;;;;;;;;;;;;;;9.26;46.97;99539.44;4792693;29;20120;-81
2021/01/13 08:21:16;;;;;;;;;;;;;;;9.35;46.07;99541.69;4796101;30;19929;-82
2021/01/13 08:23:50;;;;;;;;;;;;;;;9.41;45.16;99537.94;4772910;29;19937;-81
2021/01/13 08:26:18;;;;;;;;;;;;;;;9.47;44.21;99537.69;4778125;30;20481;-81
2021/01/13 08:28:50;;;;;;;;;;;;;;;9.53;44.11;99526.84;4775908;30;19930;-81
2021/01/13 08:31:19;;;;;;;;;;;;;;;9.40;45.05;99528.28;4790012;29;19930;-82
2021/01/13 08:33:48;;;;;;;;;;;;;;;9.29;45.80;99518.19;4777637;30;19940;-82
2021/01/13 08:36:16;;;;;;;;;;;;;;;9.22;46.01;99512.31;4796791;30;19933;-81
2021/01/13 08:39:02;;;;;;;;;;;;;;;9.18;46.50;99518.66;4797360;30;19955;-82
2021/01/13 08:41:32;;;;;;;;;;;;;;;9.16;47.38;99511.72;4794950;30;20434;-82
2021/01/13 08:44:13;;;;;;;;;;;;;;;9.17;47.62;99505.53;4775407;29;20383;-81
2021/01/13 08:46:57;;;;;;;;;;;;;;;9.25;47.83;99506.91;4796956;30;19964;-81
2021/01/13 08:49:25;;;;;;;;;;;;;;;9.31;47.95;99505.78;4777264;30;20396;-79
2021/01/13 08:52:09;;;;;;;;;;;;;;;9.35;47.89;99502.13;4793996;29;19990;-81
2021/01/13 08:54:36;;;;;;;;;;;;;;;9.36;48.28;99493.25;4797398;30;20349;-81
2021/01/13 08:57:07;;;;;;;;;;;;;;;9.36;48.50;99492.41;4793055;30;19955;-81
2021/01/13 08:59:35;;;;;;;;;;;;;;;9.34;49.18;99487.19;4771678;30;19944;-81
2021/01/13 09:02:05;;;;;;;;;;;;;;;9.34;49.07;99489.84;4798374;30;19953;-82
2021/01/13 09:04:42;;;;;;;;;;;;;;;9.28;49.41;99490.97;4794293;30;20509;-82
2021/01/13 09:07:15;;;;;;;;;;;;;;;9.30;49.86;99493.53;4794316;30;19960;-82
2021/01/13 09:09:43;;;;;;;;;;;;;;;9.29;49.87;99494.44;4777222;30;19937;-82
2021/01/13 09:12:28;;;;;;;;;;;;;;;9.30;50.01;99491.75;4775082;30;19930;-82
2021/01/13 09:15:25;;;;;;;;;;;;;;;9.30;49.77;99485.63;4792847;30;19941;-81
2021/01/13 09:17:57;;;;;;;;;;;;;;;9.28;49.86;99488.31;4724204;30;19962;-82
2021/01/13 09:20:29;;;;;;;;;;;;;;;9.26;50.03;99482.22;4778803;30;20033;-82
2021/01/13 09:22:57;;;;;;;;;;;;;;;9.26;50.64;99476.97;4793645;29;19975;-82
2021/01/13 09:25:25;;;;;;;;;;;;;;;9.26;50.37;99481.38;4774033;30;19933;-83
2021/01/13 09:27:53;;;;;;;;;;;;;;;9.23;50.60;99469.19;4791659;30;19929;-82
2021/01/13 09:30:26;;;;;;;;;;;;;;;9.23;50.97;99469.19;4781016;30;19941;-82
2021/01/13 09:32:55;;;;;;;;;;;;;;;9.22;50.88;99464.81;4794540;30;20009;-82
2021/01/13 09:35:23;;;;;;;;;;;;;;;9.20;50.89;99469.28;4777694;30;19933;-82
2021/01/13 09:37:51;;;;;;;;;;;;;;;9.18;50.98;99457.09;4774130;30;19944;-82
2021/01/13 09:40:19;;;;;;;;;;;;;;;9.16;50.66;99451.03;4791632;30;19933;-82
2021/01/13 09:42:47;;;;;;;;;;;;;;;9.11;50.93;99456.50;4794770;29;19986;-81
2021/01/13 09:45:14;;;;;;;;;;;;;;;9.11;50.88;99449.44;4780545;30;19941;-79
2021/01/13 09:47:42;;;;;;;;;;;;;;;9.07;51.25;99447.00;4796848;30;20002;-82
2021/01/13 09:50:11;;;;;;;;;;;;;;;9.07;51.27;99447.84;4778552;30;19997;-82
2021/01/13 09:52:39;;;;;;;;;;;;;;;9.08;51.52;99451.34;4791239;30;19933;-82
2021/01/13 09:55:08;;;;;;;;;;;;;;;9.05;52.02;99447.06;4788658;30;19961;-81
2021/01/13 09:57:36;;;;;;;;;;;;;;;9.02;51.22;99441.03;4796414;30;19998;-82
2021/01/13 10:00:04;;;;;;;;;;;;;;;9.01;51.15;99432.28;4796995;30;19930;-78
2021/01/13 10:02:39;;;;;;;;;;;;;;;9.00;51.34;99435.00;4794913;30;19981;-78
2021/01/13 10:05:07;;;;;;;;;;;;;;;8.99;51.82;99428.00;4795101;30;20004;-78
2021/01/13 10:07:35;;;;;;;;;;;;;;;8.97;51.53;99425.44;4772957;30;19930;-78
2021/01/13 10:10:06;;;;;;;;;;;;;;;8.95;51.87;99425.47;4788520;29;19984;-78
2021/01/13 10:12:36;;;;;;;;;;;;;;;8.97;52.01;99415.72;4788271;29;19936;-78
2021/01/13 10:15:05;;;;;;;;;;;;;;;8.98;52.15;99416.56;4796805;30;19930;-78
2021/01/13 10:17:32;;;;;;;;;;;;;;;9.00;52.06;99419.16;4792528;29;19957;-78
2021/01/13 10:20:11;;;;;;;;;;;;;;;8.98;51.79;99413.94;4771431;30;19937;-78
2021/01/13 10:22:38;;;;;;;;;;;;;;;8.96;52.27;99405.25;4791346;30;19941;-78
2021/01/13 10:25:05;;;;;;;;;;;;;;;8.93;51.75;99402.72;4796177;30;20180;-78
2021/01/13 10:27:32;;;;;;;;;;;;;;;8.92;52.07;99398.38;4795098;30;20330;-79
2021/01/13 10:29:59;;;;;;;;;;;;;;;8.92;52.28;99393.94;4796912;30;19933;-78
2021/01/13 10:32:26;;;;;;;;;;;;;;;8.93;52.33;99389.53;4795362;30;19933;-78
2021/01/13 10:34:53;;;;;;;;;;;;;;;8.89;52.70;99380.91;4773303;30;19940;-78
2021/01/13 10:37:21;;;;;;;;;;;;;;;8.90;52.43;99382.59;4790964;30;19930;-78
2021/01/13 10:39:48;;;;;;;;;;;;;;;8.88;52.14;99379.19;4793512;30;20306;-78
2021/01/13 10:42:16;;;;;;;;;;;;;;;8.91;52.05;99378.19;4791685;29;19961;-78
2021/01/13 10:44:45;;;;;;;;;;;;;;;8.93;52.23;99373.69;4776952;30;20001;-78
2021/01/13 10:47:12;;;;;;;;;;;;;;;8.90;52.21;99369.41;4795200;30;20386;-77
2021/01/13 10:49:42;;;;;;;;;;;;;;;8.89;52.21;99366.84;4787865;30;19944;-77
2021/01/13 10:52:12;;;;;;;;;;;;;;;8.92;52.66;99362.31;4798409;29;19937;-78
2021/01/13 10:54:40;;;;;;;;;;;;;;;8.99;52.46;99367.31;4780508;30;19953;-77
2021/01/13 10:57:08;;;;;;;;;;;;;;;9.00;52.07;99369.06;4797213;29;20029;-78
2021/01/13 10:59:36;;;;;;;;;;;;;;;9.06;52.18;99371.41;4782252;30;20517;-77
2021/01/13 11:02:04;;;;;;;;;;;;;;;9.05;51.69;99372.31;4792052;30;19937;-78
2021/01/13 11:04:33;;;;;;;;;;;;;;;9.05;51.92;99367.03;4773595;30;19930;-77
2021/01/13 11:07:14;;;;;;;;;;;;;;;9.02;52.45;99364.53;4794717;29;20226;-78
2021/01/13 11:09:43;;;;;;;;;;;;;;;9.04;52.16;99360.91;4782266;30;19929;-77
2021/01/13 11:12:10;;;;;;;;;;;;;;;9.07;52.59;99350.22;4783165;30;19933;-77
2021/01/13 11:14:43;;;;;;;;;;;;;;;9.07;51.86;99359.94;4799018;30;19964;-77
2021/01/13 11:17:11;;;;;;;;;;;;;;;9.17;52.30;99353.34;4790758;30;19934;-77
2021/01/13 11:19:40;;;;;;;;;;;;;;;9.25;51.85;99342.44;4791209;29;19972;-77
2021/01/13 11:22:07;;;;;;;;;;;;;;;9.54;51.48;99330.56;4796072;30;19930;-77
2021/01/13 11:24:35;;;;;;;;;;;;;;;9.94;50.28;99323.44;4780785;30;19960;-77
2021/01/13 11:27:06;;;;;;;;;;;;;;;9.93;50.01;99327.00;4782440;30;19939;-77
2021/01/13 11:29:34;;;;;;;;;;;;;;;9.85;50.54;99326.53;4796676;30;19934;-77
2021/01/13 11:32:02;;;;;;;;;;;;;;;9.81;50.72;99330.22;4791591;29;20039;-78
2021/01/13 11:34:29;;;;;;;;;;;;;;;9.87;49.34;99318.50;4793336;29;19933;-77
2021/01/13 11:37:13;;;;;;;;;;;;;;;10.00;48.02;99313.50;4770872;30;19929;-77
2021/01/13 11:39:43;;;;;;;;;;;;;;;10.24;46.65;99303.53;4789760;29;19938;-78
2021/01/13 11:42:21;;;;;;;;;;;;;;;10.30;45.63;99314.66;4779459;30;19937;-82
2021/01/13 11:44:55;;;;;;;;;;;;;;;10.36;44.64;99305.63;4788179;29;19940;-82
2021/01/13 11:47:30;;;;;;;;;;;;;;;10.39;44.22;99308.09;4777531;30;19933;-82
2021/01/13 11:49:59;;;;;;;;;;;;;;;10.35;43.87;99303.91;4797196;30;20398;-83
2021/01/13 11:52:27;;;;;;;;;;;;;;;10.35;43.51;99308.28;4798874;30;20414;-82
2021/01/13 11:54:54;;;;;;;;;;;;;;;10.23;43.97;99300.03;4782319;30;19952;-82
2021/01/13 11:57:25;;;;;;;;;;;;;;;10.07;44.46;99296.41;4779869;30;19933;-82
2021/01/13 11:59:53;;;;;;;;;;;;;;;9.95;45.12;99292.59;4792263;30;19990;-82
2021/01/13 12:02:21;;;;;;;;;;;;;;;9.89;45.96;99292.88;4795057;29;19933;-82
2021/01/13 12:04:48;;;;;;;;;;;;;;;9.84;46.33;99281.69;4777330;30;19994;-82
2021/01/13 12:07:15;;;;;;;;;;;;;;;9.77;46.77;99275.81;4782220;30;19933;-79
2021/01/13 12:09:44;;;;;;;;;;;;;;;9.74;47.50;99273.34;4780984;30;19937;-82
2021/01/13 12:12:29;;;;;;;;;;;;;;;9.75;47.79;99275.06;4770537;30;20020;-76
2021/01/13 12:15:01;;;;;;;;;;;;;;;9.72;47.75;99270.78;4791178;30;20026;-77
2021/01/13 12:17:31;;;;;;;;;;;;;;;9.79;47.83;99264.25;4794883;30;20346;-77
2021/01/13 12:19:58;;;;;;;;;;;;;;;9.83;47.67;99257.06;4796622;30;19934;-78
2021/01/13 12:22:33;;;;;;;;;;;;;;;9.88;47.92;99262.97;4790445;30;19955;-79
2021/01/13 12:25:00;;;;;;;;;;;;;;;9.90;47.92;99258.47;4778966;30;19934;-75
2021/01/13 12:28:02;;;;;;;;;;;;;;;;;;;;;
2021/01/13 12:31:06;;;;;;;;;;;;;;;9.99;48.47;99256.31;4794762;30;19953;-77
2021/01/13 12:33:33;;;;;;;;;;;;;;;9.98;48.44;99242.25;4796751;30;19940;-78
2021/01/13 12:36:14;;;;;;;;;;;;;;;9.98;48.28;99255.47;4785758;29;19938;-82
2021/01/13 12:38:41;;;;;;;;;;;;;;;10.00;48.57;99247.47;4794520;30;19980;-83
2021/01/13 12:41:08;;;;;;;;;;;;;;;9.98;48.48;99244.91;4774920;30;19941;-84
2021/01/13 12:43:36;;;;;;;;;;;;;;;9.96;48.72;99247.59;4772210;30;19941;-84
2021/01/13 12:46:04;;;;;;;;;;;;;;;9.95;49.16;99240.63;4780964;30;19936;-84
2021/01/13 12:48:31;;;;;;;;;;;;;;;9.95;49.21;99237.09;4795138;30;19937;-84
2021/01/13 12:50:57;;;;;;;;;;;;;;;9.98;48.75;99239.63;4795812;30;19936;-82
2021/01/13 12:53:24;;;;;;;;;;;;;;;9.95;49.00;99240.63;4777622;30;19940;-85
2021/01/13 12:55:51;;;;;;;;;;;;;;;9.94;49.30;99238.03;4787803;29;19934;-84
2021/01/13 12:58:18;;;;;;;;;;;;;;;9.95;49.00;99239.75;4793176;29;19930;-82
2021/01/13 13:00:46;;;;;;;;;;;;;;;9.94;49.00;99230.97;4795037;30;19996;-84
2021/01/13 13:03:16;;;;;;;;;;;;;;;9.86;49.37;99229.63;4791700;30;19930;-78
2021/01/13 13:06:07;;;;;;;;;;;;;;;9.86;49.72;99224.34;4764688;30;20352;-77
2021/01/13 13:09:11;;;;;;;;;;;;;;;9.78;50.17;99228.25;4774149;29;19956;-81
2021/01/13 13:12:24;;;;;;;;;;;;;;;9.76;49.70;99221.31;4734730;30;19957;-77
2021/01/13 13:14:54;;;;;;;;;;;;;;;9.76;50.30;99218.69;4721217;30;20321;-78
2021/01/13 13:17:25;;;;;;;;;;;;;;;9.75;50.20;99217.81;4737988;30;20094;-78
2021/01/13 13:19:52;;;;;;;;;;;;;;;9.71;50.55;99218.88;4733984;30;19930;-78
2021/01/13 13:22:19;;;;;;;;;;;;;;;9.72;50.05;99217.13;4716185;30;20638;-77
2021/01/13 13:24:45;;;;;;;;;;;;;;;9.75;50.33;99227.53;4715378;30;19931;-77
2021/01/13 13:27:12;;;;;;;;;;;;;;;9.74;49.96;99231.09;4734112;30;19930;-76
2021/01/13 13:29:40;;;;;;;;;;;;;;;9.77;50.39;99230.94;4736966;30;19935;-80
2021/01/13 13:32:06;;;;;;;;;;;;;;;9.81;49.84;99227.22;4737313;30;19961;-80
2021/01/13 13:34:47;;;;;;;;;;;;;;;9.79;50.23;99229.06;4725384;30;19935;-81
2021/01/13 13:37:14;;;;;;;;;;;;;;;9.77;50.20;99234.44;4720407;30;19938;-76
2021/01/13 13:39:41;;;;;;;;;;;;;;;9.74;50.51;99231.09;4709795;30;19958;-80
2021/01/13 13:42:08;;;;;;;;;;;;;;;9.70;50.44;99232.16;4730779;29;19933;-80
2021/01/13 13:44:35;;;;;;;;;;;;;;;9.66;50.88;99234.09;4766444;29;20605;-80
2021/01/13 13:47:02;;;;;;;;;;;;;;;9.61;50.99;99233.44;4786742;29;19938;-80
2021/01/13 13:49:29;;;;;;;;;;;;;;;9.57;50.95;99229.25;4782837;29;19937;-80
2021/01/13 13:51:57;;;;;;;;;;;;;;;9.54;51.55;99235.53;4762646;29;19933;-83
2021/01/13 13:54:23;;;;;;;;;;;;;;;9.49;51.14;99229.59;4788365;29;19936;-78
2021/01/13 13:56:54;;;;;;;;;;;;;;;9.44;51.61;99227.19;4792452;29;19962;-81
2021/01/13 13:59:21;;;;;;;;;;;;;;;9.44;51.67;99229.84;4790095;29;19945;-80
2021/01/13 14:01:47;;;;;;;;;;;;;;;9.41;51.31;99229.97;4788169;29;20030;-81
2021/01/13 14:04:14;;;;;;;;;;;;;;;9.37;51.45;99222.28;4785056;29;19937;-80
2021/01/13 14:06:41;;;;;;;;;;;;;;;9.36;51.55;99225.84;4763445;29;19968;-78
2021/01/13 14:09:09;;;;;;;;;;;;;;;9.32;51.89;99224.28;4790087;29;19929;-80
2021/01/13 14:11:39;;;;;;;;;;;;;;;9.31;51.59;99223.41;4784566;29;20028;-81
2021/01/13 14:14:06;;;;;;;;;;;;;;;9.28;51.49;99227.06;4766769;29;19941;-80
2021/01/13 14:16:33;;;;;;;;;;;;;;;9.28;52.35;99231.47;4767102;29;20547;-81
2021/01/13 14:19:00;;;;;;;;;;;;;;;9.26;52.28;99236.81;4766660;29;19929;-81
2021/01/13 14:21:27;;;;;;;;;;;;;;;9.25;52.34;99227.19;4784248;29;19980;-78
2021/01/13 14:23:54;;;;;;;;;;;;;;;9.24;52.14;99243.94;4770486;29;19980;-79
2021/01/13 14:26:22;;;;;;;;;;;;;;;9.21;52.15;99238.81;4788407;29;19945;-77
2021/01/13 14:28:49;;;;;;;;;;;;;;;9.19;52.58;99248.56;4787336;29;19937;-81
2021/01/13 14:31:16;;;;;;;;;;;;;;;9.15;52.51;99252.28;4787052;29;19938;-77
2021/01/13 14:33:43;;;;;;;;;;;;;;;9.12;52.67;99257.69;4759399;29;19944;-81
2021/01/13 14:36:13;;;;;;;;;;;;;;;9.08;52.48;99256.13;4785163;29;19937;-80
2021/01/13 14:38:40;;;;;;;;;;;;;;;9.06;53.07;99261.47;4785783;29;19934;-79
2021/01/13 14:41:08;;;;;;;;;;;;;;;9.25;50.95;99263.28;4791969;29;20000;-81
2021/01/13 14:43:36;;;;;;;;;;;;;;;9.32;49.77;99255.94;4784831;29;19937;-81
2021/01/13 14:46:03;;;;;;;;;;;;;;;9.36;48.59;99262.78;4788696;29;19936;-78
2021/01/13 14:48:30;;;;;;;;;;;;;;;9.37;47.82;99267.16;4777236;29;19937;-80
2021/01/13 14:50:57;;;;;;;;;;;;;;;9.43;47.42;99265.06;4768402;29;20674;-80
2021/01/13 14:53:24;;;;;;;;;;;;;;;9.47;46.79;99265.78;4784261;29;19933;-79
2021/01/13 14:55:50;;;;;;;;;;;;;;;9.50;45.89;99267.44;4791212;29;19930;-80
2021/01/13 14:58:17;;;;;;;;;;;;;;;9.50;45.80;99264.81;4764844;29;19960;-80
2021/01/13 15:00:45;;;;;;;;;;;;;;;9.52;44.76;99277.00;4780961;29;19937;-80
2021/01/13 15:03:12;;;;;;;;;;;;;;;9.54;44.68;99283.03;4766923;29;19929;-80
2021/01/13 15:05:39;;;;;;;;;;;;;;;9.37;45.06;99277.69;4768718;29;20070;-80
2021/01/13 15:08:06;;;;;;;;;;;;;;;9.21;46.01;99280.19;4783700;29;19952;-78
2021/01/13 15:10:33;;;;;;;;;;;;;;;9.11;46.58;99285.00;4782082;29;20331;-81
2021/01/13 15:13:00;;;;;;;;;;;;;;;9.04;47.50;99291.50;4766833;29;19933;-81
2021/01/13 15:15:27;;;;;;;;;;;;;;;9.04;47.51;99289.69;4777970;29;19973;-81
2021/01/13 15:17:55;;;;;;;;;;;;;;;9.03;47.78;99301.16;4763578;29;20052;-80
2021/01/13 15:20:23;;;;;;;;;;;;;;;9.06;47.92;99305.44;4785284;29;20001;-81
2021/01/13 15:22:49;;;;;;;;;;;;;;;9.06;48.31;99303.69;4763826;29;19937;-82
2021/01/13 15:25:17;;;;;;;;;;;;;;;9.08;48.65;99309.72;4788663;29;20364;-83
2021/01/13 15:27:45;;;;;;;;;;;;;;;9.07;48.93;99310.66;4764254;29;20040;-80
2021/01/13 15:30:12;;;;;;;;;;;;;;;9.06;48.86;99308.09;4782521;29;20001;-81
2021/01/13 15:32:39;;;;;;;;;;;;;;;9.08;49.59;99306.25;4766024;29;19959;-81
2021/01/13 15:35:08;;;;;;;;;;;;;;;9.07;49.53;99315.09;4784612;29;19969;-81
2021/01/13 15:37:37;;;;;;;;;;;;;;;9.08;49.96;99309.72;4788678;29;19945;-82
2021/01/13 15:40:05;;;;;;;;;;;;;;;9.06;50.03;99316.00;4785052;29;20027;-82
2021/01/13 15:42:32;;;;;;;;;;;;;;;9.06;50.06;99316.00;4786300;29;19950;-82
2021/01/13 15:44:59;;;;;;;;;;;;;;;9.02;50.38;99319.72;4772661;29;19954;-81
2021/01/13 15:47:46;;;;;;;;;;;;;;;9.00;50.75;99327.69;4791020;29;19933;-82
2021/01/13 15:50:14;;;;;;;;;;;;;;;8.98;50.93;99332.16;4775418;30;20033;-81
2021/01/13 15:52:46;;;;;;;;;;;;;;;8.97;51.16;99333.97;4774024;29;19961;-82
2021/01/13 15:55:13;;;;;;;;;;;;;;;8.94;51.47;99333.22;4769457;29;20398;-81
2021/01/13 15:57:43;;;;;;;;;;;;;;;8.93;51.28;99347.31;4787299;29;19933;-79
2021/01/13 16:00:10;;;;;;;;;;;;;;;8.91;51.39;99351.81;4768859;29;19935;-81
2021/01/13 16:02:42;;;;;;;;;;;;;;;8.92;51.54;99351.75;4789264;29;19957;-82
2021/01/13 16:05:10;;;;;;;;;;;;;;;8.89;51.66;99354.53;4789199;29;19930;-80
2021/01/13 16:07:37;;;;;;;;;;;;;;;8.88;51.19;99354.59;4793794;29;19937;-80
2021/01/13 16:10:05;;;;;;;;;;;;;;;8.88;52.01;99362.53;4766582;30;19956;-83
2021/01/13 16:12:33;;;;;;;;;;;;;;;8.85;51.75;99365.25;4786922;29;20160;-79
2021/01/13 16:15:00;;;;;;;;;;;;;;;8.84;52.01;99372.34;4787826;29;19930;-79
2021/01/13 16:17:27;;;;;;;;;;;;;;;8.80;52.45;99373.38;4778511;30;20423;-79
2021/01/13 16:19:54;;;;;;;;;;;;;;;8.78;52.30;99364.66;4767793;29;19964;-81
2021/01/13 16:30:44;;;;;;;;;;;;;;;8.70;52.26;99383.44;4682994;30;19939;-81
2021/01/13 16:38:54;;;;;;;;;;;;;;;8.64;52.71;99392.47;4735468;30;19941;-84
2021/01/13 16:50:12;;;;;;;;;;;;;;;8.55;53.12;99405.16;4777971;24;19963;-76
2021/01/13 16:52:39;;;;;;;;;;;;;;;8.54;53.61;99408.72;4776574;29;19941;-76
2021/01/13 16:55:07;;;;;;;;;;;;;;;8.50;53.38;99405.34;4782969;29;19999;-76
2021/01/13 16:57:35;;;;;;;;;;;;;;;8.48;53.55;99415.09;4766668;30;19940;-75
2021/01/13 17:00:07;;;;;;;;;;;;;;;8.47;53.48;99416.03;4785012;29;19929;-76
2021/01/13 17:02:36;;;;;;;;;;;;;;;8.46;53.24;99414.31;4779226;29;20556;-75
2021/01/13 17:05:11;;;;;;;;;;;;;;;8.44;53.67;99416.09;4778850;29;19939;-76
2021/01/13 17:07:38;;;;;;;;;;;;;;;8.39;54.08;99420.69;4777918;30;19967;-76
2021/01/13 17:10:06;;;;;;;;;;;;;;;8.40;53.37;99414.50;4777677;29;19933;-75
2021/01/13 17:12:34;;;;;;;;;;;;;;;8.36;53.66;99426.09;4776842;30;19937;-75
2021/01/13 17:15:03;;;;;;;;;;;;;;;8.35;53.89;99434.91;4772228;29;20041;-75
2021/01/13 17:17:30;;;;;;;;;;;;;;;8.32;53.63;99430.63;4772862;29;19934;-75
2021/01/13 17:20:00;;;;;;;;;;;;;;;8.29;54.19;99442.13;4777142;29;19940;-76
2021/01/13 17:22:27;;;;;;;;;;;;;;;8.26;54.43;99434.38;4771934;30;19941;-75
2021/01/13 17:24:55;;;;;;;;;;;;;;;8.25;54.26;99450.22;4777142;29;19973;-75
2021/01/13 17:27:22;;;;;;;;;;;;;;;8.25;53.81;99447.59;4778758;29;19940;-77
2021/01/13 17:29:49;;;;;;;;;;;;;;;8.21;54.17;99454.75;4782928;29;19965;-73
2021/01/13 17:32:15;;;;;;;;;;;;;;;8.20;53.98;99453.03;4783958;29;20364;-74
2021/01/13 17:34:42;;;;;;;;;;;;;;;8.21;54.20;99457.38;4769083;30;19934;-73
2021/01/13 17:37:10;;;;;;;;;;;;;;;8.18;54.48;99465.41;4770135;29;19942;-76
2021/01/13 17:39:38;;;;;;;;;;;;;;;8.33;53.16;99468.38;4783107;29;20296;-75
2021/01/13 17:42:06;;;;;;;;;;;;;;;8.45;52.84;99479.31;4782384;29;19986;-74
2021/01/13 17:44:33;;;;;;;;;;;;;;;8.43;53.58;99490.81;4779046;29;20304;-75
2021/01/13 17:47:00;;;;;;;;;;;;;;;8.45;53.92;99491.63;4758189;30;19975;-74
2021/01/13 17:49:28;;;;;;;;;;;;;;;8.49;53.94;99500.31;4777107;30;19978;-74
2021/01/13 17:51:56;;;;;;;;;;;;;;;8.59;52.69;99501.66;4775223;29;20339;-73
2021/01/13 17:54:25;;;;;;;;;;;;;;;8.68;51.39;99511.84;4780837;29;20419;-74
2021/01/13 17:56:52;;;;;;;;;;;;;;;8.76;49.90;99512.41;4778842;29;19933;-74
2021/01/13 17:59:20;;;;;;;;;;;;;;;8.83;48.77;99520.94;4776917;29;19937;-75
2021/01/13 18:01:48;;;;;;;;;;;;;;;8.91;48.05;99529.38;4742127;30;19930;-75
2021/01/13 18:04:16;;;;;;;;;;;;;;;9.03;47.34;99525.38;4773241;29;20043;-75
2021/01/13 18:06:42;;;;;;;;;;;;;;;9.07;47.06;99542.81;4777371;29;19933;-75
2021/01/13 18:09:09;;;;;;;;;;;;;;;9.12;46.36;99540.00;4773011;29;20670;-75
2021/01/13 18:11:38;;;;;;;;;;;;;;;9.19;45.56;99545.88;4774408;29;19977;-76
2021/01/13 18:14:05;;;;;;;;;;;;;;;9.32;45.30;99551.53;4776204;29;20323;-75
2021/01/13 18:16:34;;;;;;;;;;;;;;;9.37;44.89;99562.75;4774637;29;19964;-75
2021/01/13 18:19:04;;;;;;;;;;;;;;;9.15;45.79;99566.25;4760746;30;20028;-76
2021/01/13 18:21:32;;;;;;;;;;;;;;;9.06;45.83;99580.69;4777356;30;20032;-75
2021/01/13 18:23:58;;;;;;;;;;;;;;;9.02;46.89;99575.59;4779704;29;19938;-75
2021/01/13 18:26:25;;;;;;;;;;;;;;;8.99;47.45;99581.00;4778469;29;19934;-75
2021/01/13 18:28:52;;;;;;;;;;;;;;;8.95;47.84;99593.44;4774579;29;20032;-72
2021/01/13 18:31:19;;;;;;;;;;;;;;;9.00;48.20;99596.75;4777459;29;19933;-73
2021/01/13 18:33:46;;;;;;;;;;;;;;;9.01;48.43;99608.16;4759993;30;20292;-75
2021/01/13 18:36:13;;;;;;;;;;;;;;;9.02;49.10;99613.38;4778165;30;19936;-74
2021/01/13 18:38:40;;;;;;;;;;;;;;;9.02;48.57;99628.34;4778024;29;20448;-75
2021/01/13 18:41:07;;;;;;;;;;;;;;;9.05;49.14;99634.38;4778194;29;20063;-74
2021/01/13 18:43:33;;;;;;;;;;;;;;;9.00;49.40;99644.22;4768469;30;19937;-75
2021/01/13 18:46:00;;;;;;;;;;;;;;;9.01;49.55;99642.44;4774407;29;19934;-74
2021/01/13 18:48:27;;;;;;;;;;;;;;;9.02;49.87;99654.72;4760925;30;20424;-75
2021/01/13 18:50:54;;;;;;;;;;;;;;;9.02;50.08;99666.16;4771154;29;20033;-74
2021/01/13 18:53:21;;;;;;;;;;;;;;;9.00;50.01;99669.75;4778502;29;20356;-74
2021/01/13 18:55:48;;;;;;;;;;;;;;;8.98;50.52;99680.34;4772924;30;19963;-74
2021/01/13 18:58:15;;;;;;;;;;;;;;;8.99;50.03;99691.78;4764795;30;20399;-74
2021/01/13 19:00:43;;;;;;;;;;;;;;;8.99;50.53;99694.41;4776623;29;20442;-74
2021/01/13 19:03:11;;;;;;;;;;;;;;;8.94;51.44;99694.56;4768464;29;19937;-74
2021/01/13 19:05:38;;;;;;;;;;;;;;;8.94;50.55;99702.50;4770250;29;19938;-74
2021/01/13 19:08:08;;;;;;;;;;;;;;;8.92;51.05;99718.38;4779196;29;19930;-74
2021/01/13 19:10:35;;;;;;;;;;;;;;;8.91;51.15;99718.44;4773458;29;19937;-73
2021/01/13 19:13:02;;;;;;;;;;;;;;;8.89;51.34;99725.53;4778890;29;19994;-74
2021/01/13 19:15:29;;;;;;;;;;;;;;;8.87;51.63;99733.50;4770806;29;19961;-74
2021/01/13 19:17:56;;;;;;;;;;;;;;;8.87;51.62;99733.50;4775242;29;20288;-74
2021/01/13 19:20:24;;;;;;;;;;;;;;;8.85;51.90;99745.91;4762009;30;20072;-74
2021/01/13 19:22:51;;;;;;;;;;;;;;;8.84;52.31;99764.41;4767408;30;19933;-74
2021/01/13 19:25:18;;;;;;;;;;;;;;;8.83;51.90;99770.63;4779650;29;20513;-73
2021/01/13 19:27:48;;;;;;;;;;;;;;;8.79;51.56;99794.44;4781408;29;19937;-74
2021/01/13 19:30:15;;;;;;;;;;;;;;;8.81;51.81;99797.00;4761856;30;19933;-74
2021/01/13 19:32:43;;;;;;;;;;;;;;;8.77;51.85;99788.38;4774809;30;19934;-73
2021/01/13 19:35:12;;;;;;;;;;;;;;;8.76;52.09;99799.84;4780941;30;19933;-73